createdAt,value
2023-04-16T00:02:15.030Z,10.54
2023-04-16T00:04:42.735Z,10.80
2023-04-16T00:07:10.238Z,10.58
2023-04-16T00:09:37.682Z,10.80
2023-04-16T00:12:06.118Z,11.01
2023-04-16T00:14:33.617Z,10.62
2023-04-16T00:17:01.113Z,10.71
2023-04-16T00:19:28.678Z,10.54
2023-04-16T00:21:56.396Z,10.76
2023-04-16T00:24:23.777Z,10.76
2023-04-16T00:26:51.175Z,10.69
2023-04-16T00:29:18.520Z,11.04
2023-04-16T00:31:45.894Z,10.78
2023-04-16T00:34:13.309Z,10.62
2023-04-16T00:36:40.783Z,10.79
2023-04-16T00:39:08.570Z,10.57
2023-04-16T00:41:36.226Z,10.58
2023-04-16T00:44:03.933Z,10.52
2023-04-16T00:46:31.421Z,10.61
2023-04-16T00:48:58.835Z,10.62
2023-04-16T00:51:27.059Z,10.69
2023-04-16T00:53:54.526Z,10.56
2023-04-16T00:56:24.048Z,10.52
2023-04-16T00:58:51.600Z,10.43
2023-04-16T01:01:19.137Z,10.37
2023-04-16T01:03:47.342Z,10.46
2023-04-16T01:06:15.050Z,10.30
2023-04-16T01:08:42.494Z,10.46
2023-04-16T01:11:11.364Z,10.48
2023-04-16T01:13:39.761Z,10.83
2023-04-16T01:16:11.260Z,10.55
2023-04-16T01:18:39.163Z,10.65
2023-04-16T01:21:06.804Z,10.75
2023-04-16T01:23:34.235Z,10.87
2023-04-16T01:26:01.678Z,10.50
2023-04-16T01:28:29.090Z,10.70
2023-04-16T01:30:56.508Z,10.68
2023-04-16T01:33:23.931Z,10.71
2023-04-16T01:35:51.335Z,10.86
2023-04-16T01:38:18.733Z,10.81
2023-04-16T01:40:46.146Z,10.95
2023-04-16T01:43:13.509Z,10.78
2023-04-16T01:45:40.856Z,10.76
2023-04-16T01:48:08.417Z,10.92
2023-04-16T01:50:35.811Z,10.78
2023-04-16T01:53:05.079Z,11.01
2023-04-16T01:55:33.838Z,10.79
2023-04-16T01:58:01.216Z,10.61
2023-04-16T02:00:28.690Z,10.72
2023-04-16T02:02:56.283Z,10.62
2023-04-16T02:05:23.834Z,10.46
2023-04-16T02:07:51.208Z,10.55
2023-04-16T02:10:18.576Z,10.70
2023-04-16T02:12:46.046Z,10.44
2023-04-16T02:15:13.465Z,10.76
2023-04-16T02:17:41.078Z,10.80
2023-04-16T02:20:10.226Z,10.56
2023-04-16T02:22:37.678Z,10.93
2023-04-16T02:25:05.549Z,10.88
2023-04-16T02:27:32.933Z,10.74
2023-04-16T02:30:00.313Z,10.76
2023-04-16T02:32:27.705Z,10.86
2023-04-16T02:34:56.966Z,10.60
2023-04-16T02:37:25.050Z,10.85
2023-04-16T02:39:53.251Z,10.86
2023-04-16T02:42:20.726Z,10.85
2023-04-16T02:44:48.145Z,10.77
2023-04-16T02:47:15.564Z,10.94
2023-04-16T02:49:42.957Z,10.69
2023-04-16T02:52:10.397Z,10.46
2023-04-16T02:54:37.825Z,10.49
2023-04-16T02:57:06.067Z,10.37
2023-04-16T02:59:33.508Z,10.81
2023-04-16T03:02:01.136Z,10.77
2023-04-16T03:04:28.964Z,10.75
2023-04-16T03:06:56.378Z,10.67
2023-04-16T03:09:23.992Z,10.72
2023-04-16T03:11:51.346Z,10.80
2023-04-16T03:14:18.733Z,10.91
2023-04-16T03:16:46.147Z,10.61
2023-04-16T03:19:13.565Z,10.80
2023-04-16T03:21:41.077Z,10.46
2023-04-16T03:24:08.460Z,10.44
2023-04-16T03:26:35.862Z,10.55
2023-04-16T03:29:03.434Z,10.38
2023-04-16T03:31:31.156Z,10.31
2023-04-16T03:33:58.636Z,10.77
2023-04-16T03:36:27.019Z,10.55
2023-04-16T03:38:54.440Z,10.48
2023-04-16T03:41:21.873Z,10.80
2023-04-16T03:43:49.256Z,10.63
2023-04-16T03:46:16.885Z,10.72
2023-04-16T03:48:44.328Z,10.36
2023-04-16T03:51:11.686Z,10.68
2023-04-16T03:53:39.047Z,10.37
2023-04-16T03:56:06.470Z,10.66
2023-04-16T03:58:33.887Z,10.45
2023-04-16T04:01:01.281Z,10.56
2023-04-16T04:03:28.990Z,10.45
2023-04-16T04:05:56.609Z,10.54
2023-04-16T04:08:24.004Z,10.49
2023-04-16T04:10:51.803Z,10.30
2023-04-16T04:13:19.449Z,10.36
2023-04-16T04:15:46.797Z,10.47
2023-04-16T04:18:14.152Z,10.36
2023-04-16T04:20:41.980Z,10.62
2023-04-16T04:23:09.461Z,10.47
2023-04-16T04:25:36.880Z,10.44
2023-04-16T04:28:04.565Z,10.45
2023-04-16T04:30:32.007Z,10.61
2023-04-16T04:32:59.475Z,10.41
2023-04-16T04:35:26.955Z,10.37
2023-04-16T04:37:54.337Z,10.32
2023-04-16T04:40:21.737Z,10.07
2023-04-16T04:42:49.241Z,10.03
2023-04-16T04:45:16.928Z,10.23
2023-04-16T04:47:44.352Z,10.25
2023-04-16T04:50:11.788Z,10.44
2023-04-16T04:52:39.333Z,10.57
2023-04-16T04:55:06.865Z,10.08
2023-04-16T04:57:34.309Z,10.12
2023-04-16T05:00:03.783Z,10.04
2023-04-16T05:02:31.223Z,10.15
2023-04-16T05:04:58.878Z,10.09
2023-04-16T05:07:26.238Z,10.08
2023-04-16T05:09:53.601Z,10.15
2023-04-16T05:12:20.954Z,9.94
2023-04-16T05:14:48.370Z,10.26
2023-04-16T05:17:15.879Z,10.22
2023-04-16T05:19:43.304Z,10.13
2023-04-16T05:22:10.698Z,10.25
2023-04-16T05:24:38.058Z,10.59
2023-04-16T05:27:05.433Z,10.31
2023-04-16T05:29:32.840Z,10.53
2023-04-16T05:32:00.266Z,10.17
2023-04-16T05:34:27.652Z,10.66
2023-04-16T05:36:55.072Z,10.27
2023-04-16T05:39:22.495Z,10.14
2023-04-16T05:41:49.988Z,10.51
2023-04-16T05:44:17.429Z,10.30
2023-04-16T05:46:44.893Z,10.30
2023-04-16T05:49:12.373Z,10.49
2023-04-16T05:51:39.756Z,10.66
2023-04-16T05:54:07.103Z,10.26
2023-04-16T05:56:34.519Z,10.32
2023-04-16T05:59:01.934Z,10.31
2023-04-16T06:01:29.379Z,10.62
2023-04-16T06:03:57.155Z,10.50
2023-04-16T06:06:24.760Z,10.70
2023-04-16T06:08:52.148Z,10.77
2023-04-16T06:11:19.570Z,10.58
2023-04-16T06:13:47.064Z,10.67
2023-04-16T06:16:14.565Z,10.54
2023-04-16T06:18:42.333Z,10.62
2023-04-16T06:21:09.703Z,10.77
2023-04-16T06:23:37.165Z,10.78
2023-04-16T06:26:04.673Z,10.66
2023-04-16T06:28:32.062Z,10.63
2023-04-16T06:30:59.536Z,10.82
2023-04-16T06:33:27.074Z,11.04
2023-04-16T06:35:54.522Z,10.81
2023-04-16T06:38:21.961Z,10.90
2023-04-16T06:40:49.606Z,10.78
2023-04-16T06:43:17.959Z,10.75
2023-04-16T06:45:45.390Z,10.74
2023-04-16T06:48:12.806Z,10.87
2023-04-16T06:50:40.276Z,10.85
2023-04-16T06:53:07.657Z,10.74
2023-04-16T06:55:35.091Z,10.86
2023-04-16T06:58:02.477Z,11.08
2023-04-16T07:00:29.927Z,10.83
2023-04-16T07:02:58.523Z,10.96
2023-04-16T07:05:26.181Z,10.89
2023-04-16T07:07:53.678Z,11.02
2023-04-16T07:10:21.306Z,11.01
2023-04-16T07:12:48.672Z,11.15
2023-04-16T07:15:16.215Z,10.87
2023-04-16T07:17:43.690Z,10.94
2023-04-16T07:20:11.325Z,11.18
2023-04-16T07:22:38.804Z,11.04
2023-04-16T07:25:06.323Z,11.17
2023-04-16T07:27:33.793Z,11.10
2023-04-16T07:30:01.360Z,11.04
2023-04-16T07:32:28.779Z,11.21
2023-04-16T07:34:56.551Z,11.12
2023-04-16T07:37:23.956Z,11.31
2023-04-16T07:39:51.757Z,11.64
2023-04-16T07:42:19.246Z,11.06
2023-04-16T07:44:46.635Z,11.29
2023-04-16T07:47:14.031Z,11.11
2023-04-16T07:49:41.477Z,11.32
2023-04-16T07:52:08.861Z,11.17
2023-04-16T07:54:36.240Z,11.16
2023-04-16T07:57:03.684Z,11.59
2023-04-16T07:59:31.204Z,11.40
2023-04-16T08:01:58.607Z,11.45
2023-04-16T08:04:26.577Z,11.04
2023-04-16T08:06:54.599Z,11.44
2023-04-16T08:09:23.877Z,11.33
2023-04-16T08:11:51.325Z,11.17
2023-04-16T08:14:18.786Z,11.38
2023-04-16T08:16:46.209Z,11.36
2023-04-16T08:19:13.692Z,11.33
2023-04-16T08:21:41.399Z,11.36
2023-04-16T08:24:09.079Z,11.64
2023-04-16T08:26:36.549Z,11.54
2023-04-16T08:29:04.103Z,11.27
2023-04-16T08:31:31.812Z,11.51
2023-04-16T08:33:59.336Z,11.40
2023-04-16T08:36:26.694Z,11.26
2023-04-16T08:38:54.104Z,11.26
2023-04-16T08:41:22.691Z,11.21
2023-04-16T08:43:51.543Z,11.41
2023-04-16T08:46:23.029Z,11.82
2023-04-16T08:48:52.958Z,11.51
2023-04-16T08:51:20.710Z,11.40
2023-04-16T08:53:54.635Z,11.76
2023-04-16T08:56:24.019Z,11.69
2023-04-16T08:58:52.232Z,12.00
2023-04-16T09:01:19.946Z,11.52
2023-04-16T09:03:50.595Z,11.55
2023-04-16T09:06:18.360Z,11.52
2023-04-16T09:08:46.617Z,11.69
2023-04-16T09:11:18.831Z,11.90
2023-04-16T09:13:47.127Z,11.89
2023-04-16T09:16:15.264Z,11.51
2023-04-16T09:18:42.806Z,11.35
2023-04-16T09:21:10.988Z,11.54
2023-04-16T09:23:40.125Z,11.54
2023-04-16T09:26:07.564Z,11.55
2023-04-16T09:28:45.196Z,11.60
2023-04-16T09:31:14.489Z,11.28
2023-04-16T09:33:42.859Z,11.69
2023-04-16T09:36:10.760Z,11.58
2023-04-16T09:38:50.809Z,11.62
2023-04-16T09:41:18.848Z,11.41
2023-04-16T09:43:57.397Z,11.85
2023-04-16T09:46:31.900Z,11.79
2023-04-16T09:48:59.370Z,11.57
2023-04-16T09:51:28.353Z,11.98
2023-04-16T09:53:58.007Z,12.12
2023-04-16T09:56:26.980Z,12.32
2023-04-16T09:58:58.585Z,11.89
2023-04-16T10:01:26.334Z,12.06
2023-04-16T10:03:55.834Z,12.23
2023-04-16T10:06:25.393Z,12.01
2023-04-16T10:08:53.762Z,12.21
2023-04-16T10:11:21.558Z,12.26
2023-04-16T10:13:49.234Z,12.32
2023-04-16T10:16:17.727Z,12.15
2023-04-16T10:18:46.002Z,12.12
2023-04-16T10:21:15.226Z,11.80
2023-04-16T10:23:43.519Z,11.58
2023-04-16T10:26:11.172Z,11.85
2023-04-16T10:28:38.608Z,12.11
2023-04-16T10:31:10.125Z,11.93
2023-04-16T10:33:40.452Z,11.97
2023-04-16T10:36:12.029Z,11.90
2023-04-16T10:38:40.248Z,12.05
2023-04-16T10:41:08.570Z,12.13
2023-04-16T10:43:42.566Z,12.14
2023-04-16T10:46:18.882Z,12.36
2023-04-16T10:48:50.201Z,12.16
2023-04-16T10:51:44.533Z,12.14
2023-04-16T10:54:14.323Z,12.39
2023-04-16T10:56:41.823Z,12.01
2023-04-16T10:59:11.513Z,12.12
2023-04-16T11:01:43.459Z,12.04
2023-04-16T11:04:22.901Z,12.17
2023-04-16T11:07:16.432Z,12.15
2023-04-16T11:09:57.751Z,12.00
2023-04-16T11:12:27.532Z,12.18
2023-04-16T11:14:56.112Z,12.10
2023-04-16T11:17:23.540Z,12.37
2023-04-16T11:19:51.555Z,12.18
2023-04-16T11:22:21.184Z,12.03
2023-04-16T11:24:48.568Z,12.22
2023-04-16T11:27:16.551Z,12.16
2023-04-16T11:29:46.333Z,12.04
2023-04-16T11:32:21.860Z,11.99
2023-04-16T11:34:49.295Z,12.13
2023-04-16T11:37:16.756Z,12.47
2023-04-16T11:39:51.556Z,12.22
2023-04-16T11:42:23.617Z,12.27
2023-04-16T11:44:55.533Z,12.36
2023-04-16T11:47:26.250Z,12.25
2023-04-16T11:49:53.909Z,12.07
2023-04-16T11:52:31.112Z,12.21
2023-04-16T11:54:58.943Z,12.37
2023-04-16T11:57:30.425Z,12.19
2023-04-16T12:00:01.977Z,12.30
2023-04-16T12:02:36.651Z,12.50
2023-04-16T12:05:05.278Z,12.70
2023-04-16T12:07:32.857Z,12.70
2023-04-16T12:10:09.483Z,12.56
2023-04-16T12:12:36.904Z,12.56
2023-04-16T12:15:04.849Z,12.41
2023-04-16T12:17:33.658Z,12.71
2023-04-16T12:20:01.970Z,12.88
2023-04-16T12:22:37.239Z,12.87
2023-04-16T12:25:06.159Z,12.93
2023-04-16T12:27:48.199Z,13.17
2023-04-16T12:30:16.854Z,13.37
2023-04-16T12:32:45.213Z,13.60
2023-04-16T12:35:12.910Z,13.17
2023-04-16T12:37:41.185Z,12.97
2023-04-16T12:40:09.479Z,12.87
2023-04-16T12:42:37.192Z,13.26
2023-04-16T12:45:05.292Z,13.33
2023-04-16T12:47:32.999Z,13.08
2023-04-16T12:50:00.580Z,13.69
2023-04-16T12:52:28.172Z,13.47
2023-04-16T12:54:55.578Z,13.96
2023-04-16T12:57:28.401Z,13.15
2023-04-16T12:59:57.335Z,13.45
2023-04-16T13:02:25.334Z,13.35
2023-04-16T13:04:53.398Z,13.50
2023-04-16T13:07:21.221Z,13.17
2023-04-16T13:09:48.637Z,13.61
2023-04-16T13:12:16.113Z,13.76
2023-04-16T13:14:45.042Z,13.47
2023-04-16T13:17:12.636Z,13.74
2023-04-16T13:19:39.998Z,13.64
2023-04-16T13:22:07.411Z,13.75
2023-04-16T13:24:34.766Z,13.74
2023-04-16T13:27:02.199Z,13.52
2023-04-16T13:29:29.956Z,13.34
2023-04-16T13:31:58.131Z,13.75
2023-04-16T13:34:25.575Z,14.01
2023-04-16T13:36:52.960Z,13.74
2023-04-16T13:39:20.376Z,13.66
2023-04-16T13:41:48.994Z,13.85
2023-04-16T13:44:16.463Z,13.93
2023-04-16T13:46:47.514Z,14.06
2023-04-16T13:49:15.418Z,14.02
2023-04-16T13:51:45.720Z,14.00
2023-04-16T13:54:13.160Z,14.10
2023-04-16T13:56:40.809Z,14.08
2023-04-16T13:59:08.784Z,14.10
2023-04-16T14:01:36.368Z,14.04
2023-04-16T14:04:06.438Z,14.39
2023-04-16T14:06:34.938Z,13.71
2023-04-16T14:09:02.393Z,14.16
2023-04-16T14:11:29.772Z,14.20
2023-04-16T14:13:57.180Z,14.38
2023-04-16T14:16:24.685Z,14.32
2023-04-16T14:18:52.218Z,14.21
2023-04-16T14:21:19.679Z,14.10
2023-04-16T14:23:47.106Z,14.28
2023-04-16T14:26:14.602Z,14.38
2023-04-16T14:28:42.210Z,14.10
2023-04-16T14:31:09.740Z,14.12
2023-04-16T14:33:37.327Z,13.61
2023-04-16T14:36:04.872Z,13.55
2023-04-16T14:38:32.504Z,13.39
2023-04-16T14:41:00.490Z,13.66
2023-04-16T14:43:28.086Z,13.65
2023-04-16T14:45:55.533Z,13.49
2023-04-16T14:48:23.242Z,13.34
2023-04-16T14:50:50.900Z,13.28
2023-04-16T14:53:18.922Z,13.63
2023-04-16T14:55:46.400Z,13.54
2023-04-16T14:58:13.846Z,13.57
2023-04-16T15:00:41.454Z,13.69
2023-04-16T15:03:09.115Z,13.52
2023-04-16T15:05:36.860Z,13.64
2023-04-16T15:08:05.448Z,13.36
2023-04-16T15:10:32.905Z,13.28
2023-04-16T15:13:00.417Z,13.15
2023-04-16T15:15:27.800Z,13.14
2023-04-16T15:17:56.956Z,13.12
2023-04-16T15:20:24.490Z,13.13
2023-04-16T15:22:51.917Z,13.23
2023-04-16T15:25:19.376Z,13.22
2023-04-16T15:27:46.775Z,13.18
2023-04-16T15:30:14.536Z,13.26
2023-04-16T15:32:42.112Z,13.26
2023-04-16T15:35:11.398Z,13.30
2023-04-16T15:37:38.942Z,13.67
2023-04-16T15:40:07.810Z,13.29
2023-04-16T15:42:35.630Z,13.40
2023-04-16T15:45:04.210Z,13.55
2023-04-16T15:47:31.643Z,13.28
2023-04-16T15:49:59.119Z,13.09
2023-04-16T15:52:26.507Z,13.41
2023-04-16T15:54:53.932Z,13.32
2023-04-16T15:57:21.483Z,13.36
2023-04-16T15:59:59.515Z,13.56
2023-04-16T16:02:33.975Z,13.38
2023-04-16T16:05:01.531Z,13.54
2023-04-16T16:07:28.991Z,13.67
2023-04-16T16:09:56.429Z,13.36
2023-04-16T16:12:24.013Z,13.40
2023-04-16T16:14:51.969Z,13.34
2023-04-16T16:17:20.331Z,13.43
2023-04-16T16:19:47.942Z,13.66
2023-04-16T16:22:16.045Z,13.29
2023-04-16T16:24:44.070Z,13.24
2023-04-16T16:27:11.455Z,13.47
2023-04-16T16:29:38.871Z,13.39
2023-04-16T16:32:06.462Z,13.33
2023-04-16T16:34:34.044Z,13.36
2023-04-16T16:37:01.412Z,13.37
2023-04-16T16:39:28.832Z,13.08
2023-04-16T16:41:56.869Z,13.23
2023-04-16T16:44:24.649Z,13.32
2023-04-16T16:46:52.084Z,13.27
2023-04-16T16:49:19.611Z,13.54
2023-04-16T16:51:47.306Z,13.58
2023-04-16T16:54:14.818Z,13.39
2023-04-16T16:56:42.502Z,13.07
2023-04-16T16:59:10.405Z,13.00
2023-04-16T17:01:38.169Z,13.02
2023-04-16T17:04:05.864Z,12.93
2023-04-16T17:06:33.585Z,13.21
2023-04-16T17:09:01.077Z,12.93
2023-04-16T17:11:29.286Z,12.84
2023-04-16T17:13:56.732Z,12.83
2023-04-16T17:16:24.589Z,12.80
2023-04-16T17:18:51.989Z,12.66
2023-04-16T17:21:19.471Z,12.46
2023-04-16T17:23:46.955Z,12.24
2023-04-16T17:26:14.531Z,12.40
2023-04-16T17:28:41.927Z,12.49
2023-04-16T17:31:11.255Z,12.12
2023-04-16T17:33:38.678Z,12.03
2023-04-16T17:36:07.333Z,12.12
2023-04-16T17:38:34.780Z,12.30
2023-04-16T17:41:02.194Z,12.36
2023-04-16T17:43:29.547Z,12.31
2023-04-16T17:45:56.915Z,12.04
2023-04-16T17:48:24.368Z,12.20
2023-04-16T17:50:51.754Z,12.01
2023-04-16T17:53:19.165Z,12.03
2023-04-16T17:55:56.878Z,12.04
2023-04-16T17:58:26.306Z,12.00
2023-04-16T18:00:53.769Z,11.99
2023-04-16T18:03:22.210Z,12.00
2023-04-16T18:05:49.758Z,12.50
2023-04-16T18:08:17.318Z,12.71
2023-04-16T18:10:44.743Z,12.71
2023-04-16T18:13:12.114Z,12.40
2023-04-16T18:15:39.598Z,12.16
2023-04-16T18:18:08.990Z,12.20
2023-04-16T18:20:36.424Z,12.12
2023-04-16T18:23:03.793Z,12.00
2023-04-16T18:25:34.967Z,12.01
2023-04-16T18:28:03.742Z,12.18
2023-04-16T18:30:31.384Z,12.17
2023-04-16T18:35:29.059Z,12.29
2023-04-16T18:37:56.816Z,12.15
2023-04-16T18:40:24.254Z,12.01
2023-04-16T18:42:51.725Z,12.12
2023-04-16T18:45:22.011Z,11.93
2023-04-16T18:47:50.344Z,11.95
2023-04-16T18:50:17.990Z,12.24
2023-04-16T18:52:45.596Z,12.18
2023-04-16T18:55:13.016Z,11.96
2023-04-16T18:57:40.475Z,11.91
2023-04-16T19:00:11.097Z,11.90
2023-04-16T19:02:38.795Z,11.71
2023-04-16T19:05:06.576Z,11.54
2023-04-16T19:07:34.795Z,11.74
2023-04-16T19:10:03.296Z,11.62
2023-04-16T19:12:30.759Z,11.85
2023-04-16T19:14:58.258Z,11.75
2023-04-16T19:17:25.698Z,11.63
2023-04-16T19:19:53.328Z,11.39
2023-04-16T19:22:20.841Z,11.66
2023-04-16T19:24:48.270Z,11.73
2023-04-16T19:27:15.686Z,11.94
2023-04-16T19:29:43.499Z,12.05
2023-04-16T19:32:12.249Z,11.87
2023-04-16T19:34:40.921Z,11.84
2023-04-16T19:37:08.261Z,11.49
2023-04-16T19:39:35.722Z,11.67
2023-04-16T19:42:03.149Z,11.78
2023-04-16T19:44:32.276Z,11.67
2023-04-16T19:46:59.866Z,11.72
2023-04-16T19:49:27.275Z,11.59
2023-04-16T19:51:55.270Z,11.51
2023-04-16T19:54:22.624Z,11.69
2023-04-16T19:56:51.697Z,11.53
2023-04-16T19:59:19.254Z,11.57
2023-04-16T20:01:46.618Z,11.80
2023-04-16T20:04:13.999Z,11.71
2023-04-16T20:06:41.399Z,11.61
2023-04-16T20:09:08.994Z,11.43
2023-04-16T20:11:36.748Z,11.56
2023-04-16T20:14:04.158Z,11.34
2023-04-16T20:16:31.698Z,11.53
2023-04-16T20:19:04.019Z,11.54
2023-04-16T20:21:32.728Z,11.36
2023-04-16T20:24:00.552Z,11.37
2023-04-16T20:26:33.353Z,11.48
2023-04-16T20:29:03.808Z,11.57
2023-04-16T20:31:31.402Z,11.25
2023-04-16T20:33:58.808Z,11.21
2023-04-16T20:36:26.552Z,11.34
2023-04-16T20:38:54.111Z,11.47
2023-04-16T20:41:22.454Z,11.53
2023-04-16T20:43:52.724Z,11.73
2023-04-16T20:46:24.129Z,11.48
2023-04-16T20:48:52.087Z,11.45
2023-04-16T20:51:19.555Z,11.32
2023-04-16T20:53:46.993Z,11.28
2023-04-16T20:56:16.037Z,11.23
2023-04-16T20:58:44.024Z,11.35
2023-04-16T21:01:11.599Z,11.23
2023-04-16T21:03:39.202Z,11.01
2023-04-16T21:06:06.719Z,11.20
2023-04-16T21:08:34.147Z,11.08
2023-04-16T21:11:01.664Z,11.06
2023-04-16T21:13:29.118Z,11.06
2023-04-16T21:15:56.947Z,11.01
2023-04-16T21:18:24.389Z,11.17
2023-04-16T21:20:51.813Z,11.31
2023-04-16T21:23:19.228Z,11.09
2023-04-16T21:25:46.625Z,11.17
2023-04-16T21:28:13.994Z,11.20
2023-04-16T21:30:41.780Z,11.13
2023-04-16T21:33:09.236Z,11.27
2023-04-16T21:35:36.636Z,11.02
2023-04-16T21:38:04.057Z,11.13
2023-04-16T21:40:31.496Z,11.18
2023-04-16T21:42:58.929Z,10.94
2023-04-16T21:45:26.460Z,11.10
2023-04-16T21:47:54.095Z,11.19
2023-04-16T21:50:21.556Z,11.03
2023-04-16T21:52:49.087Z,10.98
2023-04-16T21:55:16.524Z,10.82
2023-04-16T21:57:43.952Z,10.75
2023-04-16T22:00:13.898Z,10.83
2023-04-16T22:02:43.007Z,10.80
2023-04-16T22:05:11.285Z,10.59
2023-04-16T22:07:38.768Z,10.59
2023-04-16T22:10:06.762Z,10.66
2023-04-16T22:12:37.731Z,10.73
2023-04-16T22:15:06.001Z,10.75
2023-04-16T22:17:34.035Z,10.79
2023-04-16T22:20:06.259Z,10.94
2023-04-16T22:22:33.777Z,10.90
2023-04-16T22:25:02.017Z,10.95
2023-04-16T22:27:29.459Z,11.12
2023-04-16T22:29:56.943Z,11.05
2023-04-16T22:32:24.588Z,10.87
2023-04-16T22:34:52.229Z,10.85
2023-04-16T22:37:19.762Z,10.90
2023-04-16T22:39:47.137Z,10.93
2023-04-16T22:42:14.996Z,10.83
2023-04-16T22:44:42.403Z,10.95
2023-04-16T22:47:09.782Z,10.81
2023-04-16T22:49:37.252Z,11.07
2023-04-16T22:52:04.654Z,10.95
2023-04-16T22:54:32.554Z,10.62
2023-04-16T22:57:00.965Z,10.67
2023-04-16T22:59:28.328Z,10.66
2023-04-16T23:01:55.931Z,10.72
2023-04-16T23:04:23.438Z,10.57
2023-04-16T23:06:51.393Z,10.61
2023-04-16T23:09:20.574Z,10.69
2023-04-16T23:11:47.965Z,10.77
2023-04-16T23:14:16.814Z,10.64
2023-04-16T23:16:44.414Z,10.82
2023-04-16T23:19:14.797Z,10.83
2023-04-16T23:21:42.482Z,10.64
2023-04-16T23:24:09.920Z,10.83
2023-04-16T23:26:37.336Z,10.81
2023-04-16T23:29:04.701Z,10.86
2023-04-16T23:31:32.172Z,10.62
2023-04-16T23:33:59.671Z,10.58
2023-04-16T23:36:27.461Z,10.92
2023-04-16T23:38:55.090Z,10.98
2023-04-16T23:41:23.597Z,10.78
2023-04-16T23:43:50.944Z,10.84
2023-04-16T23:46:18.394Z,10.69
2023-04-16T23:48:45.928Z,10.64
2023-04-16T23:51:13.358Z,10.71
2023-04-16T23:53:41.444Z,10.69
2023-04-16T23:56:10.970Z,10.79
2023-04-16T23:58:38.302Z,10.85
